sensor_id;sensor_type;location;lat;lon;timestamp;temperature;humidity
77247;SHT35;66279;42.820;23.374;2023-06-24T00:00:59;19.69;79.54
77247;SHT35;66279;42.820;23.374;2023-06-24T00:03:24;19.73;79.22
77247;SHT35;66279;42.820;23.374;2023-06-24T00:05:50;19.70;79.22
77247;SHT35;66279;42.820;23.374;2023-06-24T00:08:16;19.65;80.12
77247;SHT35;66279;42.820;23.374;2023-06-24T00:10:45;19.57;79.83
77247;SHT35;66279;42.820;23.374;2023-06-24T00:13:10;19.44;79.80
77247;SHT35;66279;42.820;23.374;2023-06-24T00:15:36;19.32;79.33
77247;SHT35;66279;42.820;23.374;2023-06-24T00:18:01;19.14;79.42
77247;SHT35;66279;42.820;23.374;2023-06-24T00:20:31;19.03;79.27
77247;SHT35;66279;42.820;23.374;2023-06-24T00:22:57;18.93;79.88
77247;SHT35;66279;42.820;23.374;2023-06-24T00:25:23;18.87;79.84
77247;SHT35;66279;42.820;23.374;2023-06-24T00:27:48;18.84;79.62
77247;SHT35;66279;42.820;23.374;2023-06-24T00:30:14;18.84;79.71
77247;SHT35;66279;42.820;23.374;2023-06-24T00:32:40;18.83;80.71
77247;SHT35;66279;42.820;23.374;2023-06-24T00:35:05;18.86;80.69
77247;SHT35;66279;42.820;23.374;2023-06-24T00:37:31;18.90;80.68
77247;SHT35;66279;42.820;23.374;2023-06-24T00:39:56;18.74;81.03
77247;SHT35;66279;42.820;23.374;2023-06-24T00:42:22;18.59;80.69
77247;SHT35;66279;42.820;23.374;2023-06-24T00:44:48;18.48;81.01
77247;SHT35;66279;42.820;23.374;2023-06-24T00:47:13;18.46;80.99
77247;SHT35;66279;42.820;23.374;2023-06-24T00:49:39;18.45;81.05
77247;SHT35;66279;42.820;23.374;2023-06-24T00:52:05;18.45;81.07
77247;SHT35;66279;42.820;23.374;2023-06-24T00:54:30;18.49;80.70
77247;SHT35;66279;42.820;23.374;2023-06-24T00:56:57;18.53;80.56
77247;SHT35;66279;42.820;23.374;2023-06-24T00:59:26;18.63;79.87
77247;SHT35;66279;42.820;23.374;2023-06-24T01:01:54;18.64;80.03
77247;SHT35;66279;42.820;23.374;2023-06-24T01:04:20;18.60;80.05
77247;SHT35;66279;42.820;23.374;2023-06-24T01:06:46;18.62;80.97
77247;SHT35;66279;42.820;23.374;2023-06-24T01:09:12;18.62;80.62
77247;SHT35;66279;42.820;23.374;2023-06-24T01:11:39;18.56;80.89
77247;SHT35;66279;42.820;23.374;2023-06-24T01:14:04;18.52;80.17
77247;SHT35;66279;42.820;23.374;2023-06-24T01:16:51;18.45;81.92
77247;SHT35;66279;42.820;23.374;2023-06-24T01:19:30;18.26;82.21
77247;SHT35;66279;42.820;23.374;2023-06-24T01:22:08;18.11;82.49
77247;SHT35;66279;42.820;23.374;2023-06-24T01:25:07;18.05;82.67
77247;SHT35;66279;42.820;23.374;2023-06-24T01:33:22;18.13;82.74
77247;SHT35;66279;42.820;23.374;2023-06-24T01:35:48;18.18;82.14
77247;SHT35;66279;42.820;23.374;2023-06-24T01:38:33;18.18;80.97
77247;SHT35;66279;42.820;23.374;2023-06-24T01:41:03;18.22;81.88
77247;SHT35;66279;42.820;23.374;2023-06-24T01:43:32;18.19;81.13
77247;SHT35;66279;42.820;23.374;2023-06-24T01:45:58;18.02;81.58
77247;SHT35;66279;42.820;23.374;2023-06-24T01:48:35;17.88;82.01
77247;SHT35;66279;42.820;23.374;2023-06-24T01:51:13;17.80;81.45
77247;SHT35;66279;42.820;23.374;2023-06-24T01:53:44;17.83;81.74
77247;SHT35;66279;42.820;23.374;2023-06-24T01:56:14;17.85;81.65
77247;SHT35;66279;42.820;23.374;2023-06-24T01:58:42;17.80;81.29
77247;SHT35;66279;42.820;23.374;2023-06-24T02:01:08;17.73;81.91
77247;SHT35;66279;42.820;23.374;2023-06-24T02:03:35;17.57;82.08
77247;SHT35;66279;42.820;23.374;2023-06-24T02:06:02;17.47;82.19
77247;SHT35;66279;42.820;23.374;2023-06-24T02:08:32;17.39;82.43
77247;SHT35;66279;42.820;23.374;2023-06-24T02:11:00;17.19;83.43
77247;SHT35;66279;42.820;23.374;2023-06-24T02:13:28;17.16;83.09
77247;SHT35;66279;42.820;23.374;2023-06-24T02:15:58;17.13;84.15
77247;SHT35;66279;42.820;23.374;2023-06-24T02:18:24;17.13;84.27
77247;SHT35;66279;42.820;23.374;2023-06-24T02:20:53;17.20;84.02
77247;SHT35;66279;42.820;23.374;2023-06-24T02:23:19;17.26;83.72
77247;SHT35;66279;42.820;23.374;2023-06-24T02:25:47;17.30;84.21
77247;SHT35;66279;42.820;23.374;2023-06-24T02:28:13;17.33;83.59
77247;SHT35;66279;42.820;23.374;2023-06-24T02:30:40;17.40;82.75
77247;SHT35;66279;42.820;23.374;2023-06-24T02:33:06;17.43;83.21
77247;SHT35;66279;42.820;23.374;2023-06-24T02:35:32;17.40;82.85
77247;SHT35;66279;42.820;23.374;2023-06-24T02:37:57;17.40;82.07
77247;SHT35;66279;42.820;23.374;2023-06-24T02:40:23;17.34;82.52
77247;SHT35;66279;42.820;23.374;2023-06-24T02:42:48;17.23;82.92
77247;SHT35;66279;42.820;23.374;2023-06-24T02:45:15;17.19;83.21
77247;SHT35;66279;42.820;23.374;2023-06-24T02:47:43;17.19;83.37
77247;SHT35;66279;42.820;23.374;2023-06-24T02:50:10;17.19;83.07
77247;SHT35;66279;42.820;23.374;2023-06-24T02:52:37;17.22;83.24
77247;SHT35;66279;42.820;23.374;2023-06-24T02:55:03;17.27;83.69
77247;SHT35;66279;42.820;23.374;2023-06-24T02:57:29;17.33;83.45
77247;SHT35;66279;42.820;23.374;2023-06-24T02:59:55;17.32;82.76
77247;SHT35;66279;42.820;23.374;2023-06-24T03:02:21;17.34;83.70
77247;SHT35;66279;42.820;23.374;2023-06-24T03:04:48;17.39;83.53
77247;SHT35;66279;42.820;23.374;2023-06-24T03:07:16;17.43;83.11
77247;SHT35;66279;42.820;23.374;2023-06-24T03:09:46;17.46;83.51
77247;SHT35;66279;42.820;23.374;2023-06-24T03:12:11;17.49;83.37
77247;SHT35;66279;42.820;23.374;2023-06-24T03:14:37;17.51;83.90
77247;SHT35;66279;42.820;23.374;2023-06-24T03:17:03;17.46;83.86
77247;SHT35;66279;42.820;23.374;2023-06-24T03:19:29;17.37;83.48
77247;SHT35;66279;42.820;23.374;2023-06-24T03:21:54;17.36;83.37
77247;SHT35;66279;42.820;23.374;2023-06-24T03:24:20;17.39;83.54
77247;SHT35;66279;42.820;23.374;2023-06-24T03:26:46;17.39;83.96
77247;SHT35;66279;42.820;23.374;2023-06-24T03:29:12;17.40;84.03
77247;SHT35;66279;42.820;23.374;2023-06-24T03:31:38;17.33;84.00
77247;SHT35;66279;42.820;23.374;2023-06-24T03:34:10;17.30;84.79
77247;SHT35;66279;42.820;23.374;2023-06-24T03:36:35;17.33;84.69
77247;SHT35;66279;42.820;23.374;2023-06-24T03:39:04;17.39;84.38
77247;SHT35;66279;42.820;23.374;2023-06-24T03:41:29;17.43;84.79
77247;SHT35;66279;42.820;23.374;2023-06-24T03:43:55;17.49;84.47
77247;SHT35;66279;42.820;23.374;2023-06-24T03:46:21;17.60;83.99
77247;SHT35;66279;42.820;23.374;2023-06-24T03:48:47;17.73;83.86
77247;SHT35;66279;42.820;23.374;2023-06-24T03:51:12;17.84;83.67
77247;SHT35;66279;42.820;23.374;2023-06-24T03:53:38;17.92;83.49
77247;SHT35;66279;42.820;23.374;2023-06-24T03:56:04;18.00;83.62
77247;SHT35;66279;42.820;23.374;2023-06-24T03:58:30;18.05;83.18
77247;SHT35;66279;42.820;23.374;2023-06-24T04:00:58;18.12;83.13
77247;SHT35;66279;42.820;23.374;2023-06-24T04:03:24;18.19;83.39
77247;SHT35;66279;42.820;23.374;2023-06-24T04:05:55;18.26;83.25
77247;SHT35;66279;42.820;23.374;2023-06-24T04:08:20;18.32;83.01
77247;SHT35;66279;42.820;23.374;2023-06-24T04:10:46;18.38;83.41
77247;SHT35;66279;42.820;23.374;2023-06-24T04:13:12;18.51;82.58
77247;SHT35;66279;42.820;23.374;2023-06-24T04:15:37;18.59;83.40
77247;SHT35;66279;42.820;23.374;2023-06-24T04:18:03;18.66;83.45
77247;SHT35;66279;42.820;23.374;2023-06-24T04:20:29;18.73;84.15
77247;SHT35;66279;42.820;23.374;2023-06-24T04:22:54;18.74;83.85
77247;SHT35;66279;42.820;23.374;2023-06-24T04:25:20;18.81;82.97
77247;SHT35;66279;42.820;23.374;2023-06-24T04:27:45;18.91;82.72
77247;SHT35;66279;42.820;23.374;2023-06-24T04:30:11;19.01;83.02
77247;SHT35;66279;42.820;23.374;2023-06-24T04:32:37;19.07;82.35
77247;SHT35;66279;42.820;23.374;2023-06-24T04:35:03;19.10;81.99
77247;SHT35;66279;42.820;23.374;2023-06-24T04:37:29;19.17;82.47
77247;SHT35;66279;42.820;23.374;2023-06-24T04:39:55;19.22;81.65
77247;SHT35;66279;42.820;23.374;2023-06-24T04:42:21;19.24;82.07
77247;SHT35;66279;42.820;23.374;2023-06-24T04:44:48;19.27;81.31
77247;SHT35;66279;42.820;23.374;2023-06-24T04:47:17;19.34;81.30
77247;SHT35;66279;42.820;23.374;2023-06-24T04:49:43;19.41;81.29
77247;SHT35;66279;42.820;23.374;2023-06-24T04:52:08;19.48;81.39
77247;SHT35;66279;42.820;23.374;2023-06-24T04:54:35;19.49;81.13
77247;SHT35;66279;42.820;23.374;2023-06-24T04:57:01;19.57;80.72
77247;SHT35;66279;42.820;23.374;2023-06-24T04:59:26;19.65;80.40
77247;SHT35;66279;42.820;23.374;2023-06-24T05:01:52;19.70;81.20
77247;SHT35;66279;42.820;23.374;2023-06-24T05:04:17;19.78;80.28
77247;SHT35;66279;42.820;23.374;2023-06-24T05:06:43;19.85;80.56
77247;SHT35;66279;42.820;23.374;2023-06-24T05:09:09;19.99;80.00
77247;SHT35;66279;42.820;23.374;2023-06-24T05:11:39;20.10;79.70
77247;SHT35;66279;42.820;23.374;2023-06-24T05:14:04;20.19;79.84
77247;SHT35;66279;42.820;23.374;2023-06-24T05:16:30;20.26;79.38
77247;SHT35;66279;42.820;23.374;2023-06-24T05:18:55;20.43;78.93
77247;SHT35;66279;42.820;23.374;2023-06-24T05:21:21;20.55;78.90
77247;SHT35;66279;42.820;23.374;2023-06-24T05:23:46;20.75;79.11
77247;SHT35;66279;42.820;23.374;2023-06-24T05:26:12;20.89;78.33
77247;SHT35;66279;42.820;23.374;2023-06-24T05:28:37;21.09;77.53
77247;SHT35;66279;42.820;23.374;2023-06-24T05:31:03;21.27;77.26
77247;SHT35;66279;42.820;23.374;2023-06-24T05:33:28;21.46;77.25
77247;SHT35;66279;42.820;23.374;2023-06-24T05:35:54;21.64;76.78
77247;SHT35;66279;42.820;23.374;2023-06-24T05:38:19;21.83;75.92
77247;SHT35;66279;42.820;23.374;2023-06-24T05:40:45;22.04;76.07
77247;SHT35;66279;42.820;23.374;2023-06-24T05:43:10;22.25;75.95
77247;SHT35;66279;42.820;23.374;2023-06-24T05:45:36;22.45;74.12
77247;SHT35;66279;42.820;23.374;2023-06-24T05:48:02;22.63;74.53
77247;SHT35;66279;42.820;23.374;2023-06-24T05:50:28;22.76;73.10
77247;SHT35;66279;42.820;23.374;2023-06-24T05:52:53;22.87;72.76
77247;SHT35;66279;42.820;23.374;2023-06-24T05:55:19;23.10;72.75
77247;SHT35;66279;42.820;23.374;2023-06-24T05:57:45;23.28;70.97
77247;SHT35;66279;42.820;23.374;2023-06-24T06:00:11;23.42;70.09
77247;SHT35;66279;42.820;23.374;2023-06-24T06:02:36;23.69;70.62
77247;SHT35;66279;42.820;23.374;2023-06-24T06:05:02;23.90;70.02
77247;SHT35;66279;42.820;23.374;2023-06-24T06:07:28;24.06;69.32
77247;SHT35;66279;42.820;23.374;2023-06-24T06:09:54;24.22;69.51
77247;SHT35;66279;42.820;23.374;2023-06-24T06:12:19;24.46;68.42
77247;SHT35;66279;42.820;23.374;2023-06-24T06:14:45;24.67;66.76
77247;SHT35;66279;42.820;23.374;2023-06-24T06:17:11;24.94;66.46
77247;SHT35;66279;42.820;23.374;2023-06-24T06:19:37;25.15;67.78
77247;SHT35;66279;42.820;23.374;2023-06-24T06:22:05;25.40;66.51
77247;SHT35;66279;42.820;23.374;2023-06-24T06:24:31;25.47;63.92
77247;SHT35;66279;42.820;23.374;2023-06-24T06:26:57;25.90;66.49
77247;SHT35;66279;42.820;23.374;2023-06-24T06:29:23;26.28;64.78
77247;SHT35;66279;42.820;23.374;2023-06-24T06:31:48;26.41;63.08
77247;SHT35;66279;42.820;23.374;2023-06-24T06:34:14;26.39;61.14
77247;SHT35;66279;42.820;23.374;2023-06-24T06:36:39;26.60;65.06
77247;SHT35;66279;42.820;23.374;2023-06-24T06:39:05;26.95;63.83
77247;SHT35;66279;42.820;23.374;2023-06-24T06:41:30;27.36;62.93
77247;SHT35;66279;42.820;23.374;2023-06-24T06:43:56;27.47;62.37
77247;SHT35;66279;42.820;23.374;2023-06-24T06:46:21;27.66;62.85
77247;SHT35;66279;42.820;23.374;2023-06-24T06:48:47;27.77;60.50
77247;SHT35;66279;42.820;23.374;2023-06-24T06:51:13;28.05;60.54
77247;SHT35;66279;42.820;23.374;2023-06-24T06:53:38;28.08;57.61
77247;SHT35;66279;42.820;23.374;2023-06-24T06:56:04;28.23;57.29
77247;SHT35;66279;42.820;23.374;2023-06-24T06:58:30;28.43;56.96
77247;SHT35;66279;42.820;23.374;2023-06-24T07:00:55;28.70;57.97
77247;SHT35;66279;42.820;23.374;2023-06-24T07:03:21;29.02;55.21
77247;SHT35;66279;42.820;23.374;2023-06-24T07:05:47;29.19;54.69
77247;SHT35;66279;42.820;23.374;2023-06-24T07:08:12;29.43;55.77
77247;SHT35;66279;42.820;23.374;2023-06-24T07:10:38;29.63;54.33
77247;SHT35;66279;42.820;23.374;2023-06-24T07:13:03;29.80;54.50
77247;SHT35;66279;42.820;23.374;2023-06-24T07:15:29;29.53;55.45
77247;SHT35;66279;42.820;23.374;2023-06-24T07:17:54;29.32;48.97
77247;SHT35;66279;42.820;23.374;2023-06-24T07:20:21;29.65;50.09
77247;SHT35;66279;42.820;23.374;2023-06-24T07:22:47;29.73;48.85
77247;SHT35;66279;42.820;23.374;2023-06-24T07:25:13;30.17;50.18
77247;SHT35;66279;42.820;23.374;2023-06-24T07:27:39;30.40;49.60
77247;SHT35;66279;42.820;23.374;2023-06-24T07:30:05;30.69;52.02
77247;SHT35;66279;42.820;23.374;2023-06-24T07:32:31;30.95;49.36
77247;SHT35;66279;42.820;23.374;2023-06-24T07:34:56;31.02;49.82
77247;SHT35;66279;42.820;23.374;2023-06-24T07:37:22;31.08;45.73
77247;SHT35;66279;42.820;23.374;2023-06-24T07:39:48;31.08;45.25
77247;SHT35;66279;42.820;23.374;2023-06-24T07:42:13;31.53;46.95
77247;SHT35;66279;42.820;23.374;2023-06-24T07:44:45;31.82;49.17
77247;SHT35;66279;42.820;23.374;2023-06-24T07:47:11;31.97;45.01
77247;SHT35;66279;42.820;23.374;2023-06-24T07:49:36;32.28;44.21
77247;SHT35;66279;42.820;23.374;2023-06-24T07:52:02;32.45;41.39
77247;SHT35;66279;42.820;23.374;2023-06-24T07:54:27;32.40;41.72
77247;SHT35;66279;42.820;23.374;2023-06-24T07:56:53;32.69;41.00
77247;SHT35;66279;42.820;23.374;2023-06-24T07:59:18;32.88;42.27
77247;SHT35;66279;42.820;23.374;2023-06-24T08:01:44;32.90;40.11
77247;SHT35;66279;42.820;23.374;2023-06-24T08:04:09;33.08;41.90
77247;SHT35;66279;42.820;23.374;2023-06-24T08:06:35;33.00;40.85
77247;SHT35;66279;42.820;23.374;2023-06-24T08:09:00;32.91;43.48
77247;SHT35;66279;42.820;23.374;2023-06-24T08:11:26;33.13;40.90
77247;SHT35;66279;42.820;23.374;2023-06-24T08:13:51;33.34;44.76
77247;SHT35;66279;42.820;23.374;2023-06-24T08:16:17;33.78;40.38
77247;SHT35;66279;42.820;23.374;2023-06-24T08:18:44;33.86;39.59
77247;SHT35;66279;42.820;23.374;2023-06-24T08:21:09;33.52;41.36
77247;SHT35;66279;42.820;23.374;2023-06-24T08:23:35;33.86;41.41
77247;SHT35;66279;42.820;23.374;2023-06-24T08:26:00;33.99;40.35
77247;SHT35;66279;42.820;23.374;2023-06-24T08:28:26;33.92;41.04
77247;SHT35;66279;42.820;23.374;2023-06-24T08:30:51;34.29;41.24
77247;SHT35;66279;42.820;23.374;2023-06-24T08:33:17;34.32;41.57
77247;SHT35;66279;42.820;23.374;2023-06-24T08:35:42;34.57;40.77
77247;SHT35;66279;42.820;23.374;2023-06-24T08:38:08;34.71;40.19
77247;SHT35;66279;42.820;23.374;2023-06-24T08:40:33;34.86;39.51
77247;SHT35;66279;42.820;23.374;2023-06-24T08:42:59;35.36;40.01
77247;SHT35;66279;42.820;23.374;2023-06-24T08:45:24;35.34;36.67
77247;SHT35;66279;42.820;23.374;2023-06-24T08:47:50;35.05;41.15
77247;SHT35;66279;42.820;23.374;2023-06-24T08:50:18;35.49;39.97
77247;SHT35;66279;42.820;23.374;2023-06-24T08:52:49;35.50;37.76
77247;SHT35;66279;42.820;23.374;2023-06-24T08:55:16;35.92;37.05
77247;SHT35;66279;42.820;23.374;2023-06-24T08:57:42;35.96;38.85
77247;SHT35;66279;42.820;23.374;2023-06-24T09:00:08;35.94;37.44
77247;SHT35;66279;42.820;23.374;2023-06-24T09:02:36;35.98;37.06
77247;SHT35;66279;42.820;23.374;2023-06-24T09:05:07;35.93;37.12
77247;SHT35;66279;42.820;23.374;2023-06-24T09:07:33;36.13;37.64
77247;SHT35;66279;42.820;23.374;2023-06-24T09:09:59;36.28;36.44
77247;SHT35;66279;42.820;23.374;2023-06-24T09:12:31;35.72;36.52
77247;SHT35;66279;42.820;23.374;2023-06-24T09:14:58;36.04;37.38
77247;SHT35;66279;42.820;23.374;2023-06-24T09:17:23;36.41;37.48
77247;SHT35;66279;42.820;23.374;2023-06-24T09:19:49;36.45;38.22
77247;SHT35;66279;42.820;23.374;2023-06-24T09:22:16;36.93;36.86
77247;SHT35;66279;42.820;23.374;2023-06-24T09:24:43;36.89;36.20
77247;SHT35;66279;42.820;23.374;2023-06-24T09:27:13;37.13;34.93
77247;SHT35;66279;42.820;23.374;2023-06-24T09:29:40;37.13;33.66
77247;SHT35;66279;42.820;23.374;2023-06-24T09:32:07;37.51;34.84
77247;SHT35;66279;42.820;23.374;2023-06-24T09:34:33;37.41;33.97
77247;SHT35;66279;42.820;23.374;2023-06-24T09:36:59;37.54;36.54
77247;SHT35;66279;42.820;23.374;2023-06-24T09:39:27;37.82;35.09
77247;SHT35;66279;42.820;23.374;2023-06-24T09:42:00;37.13;34.93
77247;SHT35;66279;42.820;23.374;2023-06-24T09:44:27;37.51;35.98
77247;SHT35;66279;42.820;23.374;2023-06-24T09:46:54;37.82;36.47
77247;SHT35;66279;42.820;23.374;2023-06-24T09:49:20;37.56;35.58
77247;SHT35;66279;42.820;23.374;2023-06-24T09:51:48;37.87;35.48
77247;SHT35;66279;42.820;23.374;2023-06-24T09:54:14;38.48;34.02
77247;SHT35;66279;42.820;23.374;2023-06-24T09:56:43;39.00;32.55
77247;SHT35;66279;42.820;23.374;2023-06-24T09:59:13;39.37;34.41
77247;SHT35;66279;42.820;23.374;2023-06-24T10:01:40;38.52;35.15
77247;SHT35;66279;42.820;23.374;2023-06-24T10:04:06;38.80;33.73
77247;SHT35;66279;42.820;23.374;2023-06-24T10:06:33;39.11;34.99
77247;SHT35;66279;42.820;23.374;2023-06-24T10:09:00;39.27;33.67
77247;SHT35;66279;42.820;23.374;2023-06-24T10:11:26;39.14;34.70
77247;SHT35;66279;42.820;23.374;2023-06-24T10:13:52;39.50;34.26
77247;SHT35;66279;42.820;23.374;2023-06-24T10:16:19;39.79;34.03
77247;SHT35;66279;42.820;23.374;2023-06-24T10:18:45;39.81;33.34
77247;SHT35;66279;42.820;23.374;2023-06-24T10:21:11;39.60;35.51
77247;SHT35;66279;42.820;23.374;2023-06-24T10:24:03;39.62;35.81
77247;SHT35;66279;42.820;23.374;2023-06-24T10:26:30;39.71;34.09
77247;SHT35;66279;42.820;23.374;2023-06-24T10:34:42;39.45;35.14
77247;SHT35;66279;42.820;23.374;2023-06-24T10:37:08;40.12;34.56
77247;SHT35;66279;42.820;23.374;2023-06-24T10:39:48;40.49;32.77
77247;SHT35;66279;42.820;23.374;2023-06-24T10:44:53;40.91;33.10
77247;SHT35;66279;42.820;23.374;2023-06-24T10:47:19;40.74;30.20
77247;SHT35;66279;42.820;23.374;2023-06-24T10:49:45;40.79;29.81
77247;SHT35;66279;42.820;23.374;2023-06-24T10:52:11;40.64;32.51
77247;SHT35;66279;42.820;23.374;2023-06-24T10:54:38;40.40;30.66
77247;SHT35;66279;42.820;23.374;2023-06-24T10:57:04;39.55;29.92
77247;SHT35;66279;42.820;23.374;2023-06-24T10:59:57;40.28;31.52
77247;SHT35;66279;42.820;23.374;2023-06-24T11:02:25;40.03;30.30
77247;SHT35;66279;42.820;23.374;2023-06-24T11:04:52;39.84;29.43
77247;SHT35;66279;42.820;23.374;2023-06-24T11:07:20;39.13;30.09
77247;SHT35;66279;42.820;23.374;2023-06-24T11:09:51;40.06;33.09
77247;SHT35;66279;42.820;23.374;2023-06-24T11:12:17;40.09;31.22
77247;SHT35;66279;42.820;23.374;2023-06-24T11:14:42;40.11;32.03
77247;SHT35;66279;42.820;23.374;2023-06-24T11:17:09;39.92;32.07
77247;SHT35;66279;42.820;23.374;2023-06-24T11:19:35;40.01;32.50
77247;SHT35;66279;42.820;23.374;2023-06-24T11:22:05;39.99;33.12
77247;SHT35;66279;42.820;23.374;2023-06-24T11:24:32;39.86;31.01
77247;SHT35;66279;42.820;23.374;2023-06-24T11:26:57;39.61;32.46
77247;SHT35;66279;42.820;23.374;2023-06-24T11:29:23;39.88;30.79
77247;SHT35;66279;42.820;23.374;2023-06-24T11:31:49;40.03;31.76
77247;SHT35;66279;42.820;23.374;2023-06-24T11:34:15;39.76;31.59
77247;SHT35;66279;42.820;23.374;2023-06-24T11:36:41;39.94;31.49
77247;SHT35;66279;42.820;23.374;2023-06-24T11:39:06;39.72;32.25
77247;SHT35;66279;42.820;23.374;2023-06-24T11:41:32;40.02;30.61
77247;SHT35;66279;42.820;23.374;2023-06-24T11:43:58;40.11;32.21
77247;SHT35;66279;42.820;23.374;2023-06-24T11:46:28;40.02;31.49
77247;SHT35;66279;42.820;23.374;2023-06-24T11:49:08;40.33;30.45
77247;SHT35;66279;42.820;23.374;2023-06-24T11:51:35;39.81;30.48
77247;SHT35;66279;42.820;23.374;2023-06-24T11:54:04;40.05;29.51
77247;SHT35;66279;42.820;23.374;2023-06-24T11:56:40;40.33;30.29
77247;SHT35;66279;42.820;23.374;2023-06-24T11:59:07;40.79;31.59
77247;SHT35;66279;42.820;23.374;2023-06-24T12:01:42;40.49;31.28
77247;SHT35;66279;42.820;23.374;2023-06-24T12:04:14;41.12;31.52
77247;SHT35;66279;42.820;23.374;2023-06-24T12:06:43;41.31;30.60
77247;SHT35;66279;42.820;23.374;2023-06-24T12:09:10;40.97;30.34
77247;SHT35;66279;42.820;23.374;2023-06-24T12:11:36;40.90;30.34
77247;SHT35;66279;42.820;23.374;2023-06-24T12:14:02;41.17;30.20
77247;SHT35;66279;42.820;23.374;2023-06-24T12:16:28;40.94;31.26
77247;SHT35;66279;42.820;23.374;2023-06-24T12:18:54;40.77;31.76
77247;SHT35;66279;42.820;23.374;2023-06-24T12:21:19;40.16;29.72
77247;SHT35;66279;42.820;23.374;2023-06-24T12:23:45;39.60;29.87
77247;SHT35;66279;42.820;23.374;2023-06-24T12:26:11;39.20;30.74
77247;SHT35;66279;42.820;23.374;2023-06-24T12:28:37;39.30;30.90
77247;SHT35;66279;42.820;23.374;2023-06-24T12:31:02;39.24;31.96
77247;SHT35;66279;42.820;23.374;2023-06-24T12:33:28;39.64;30.79
77247;SHT35;66279;42.820;23.374;2023-06-24T12:35:54;39.51;30.89
77247;SHT35;66279;42.820;23.374;2023-06-24T12:38:19;39.55;31.43
77247;SHT35;66279;42.820;23.374;2023-06-24T12:40:45;39.14;30.29
77247;SHT35;66279;42.820;23.374;2023-06-24T12:43:11;39.44;31.48
77247;SHT35;66279;42.820;23.374;2023-06-24T12:45:42;39.35;31.92
77247;SHT35;66279;42.820;23.374;2023-06-24T12:48:09;39.26;32.15
77247;SHT35;66279;42.820;23.374;2023-06-24T12:50:35;38.31;33.75
77247;SHT35;66279;42.820;23.374;2023-06-24T12:53:00;37.97;34.97
77247;SHT35;66279;42.820;23.374;2023-06-24T12:55:27;37.67;35.05
77247;SHT35;66279;42.820;23.374;2023-06-24T12:57:52;37.12;35.68
77247;SHT35;66279;42.820;23.374;2023-06-24T13:00:22;36.93;36.57
77247;SHT35;66279;42.820;23.374;2023-06-24T13:02:48;36.83;37.38
77247;SHT35;66279;42.820;23.374;2023-06-24T13:05:14;36.27;38.80
77247;SHT35;66279;42.820;23.374;2023-06-24T13:07:40;35.97;39.28
77247;SHT35;66279;42.820;23.374;2023-06-24T13:10:05;36.04;39.68
77247;SHT35;66279;42.820;23.374;2023-06-24T13:12:32;36.03;39.79
77247;SHT35;66279;42.820;23.374;2023-06-24T13:14:58;35.17;39.43
77247;SHT35;66279;42.820;23.374;2023-06-24T13:17:23;33.20;41.90
77247;SHT35;66279;42.820;23.374;2023-06-24T13:19:50;31.74;42.79
77247;SHT35;66279;42.820;23.374;2023-06-24T13:22:15;30.18;43.33
77247;SHT35;66279;42.820;23.374;2023-06-24T13:24:41;28.35;50.39
77247;SHT35;66279;42.820;23.374;2023-06-24T13:27:07;27.69;61.61
77247;SHT35;66279;42.820;23.374;2023-06-24T13:29:33;24.99;66.60
77247;SHT35;66279;42.820;23.374;2023-06-24T13:31:58;21.23;70.59
77247;SHT35;66279;42.820;23.374;2023-06-24T13:34:24;20.72;71.24
77247;SHT35;66279;42.820;23.374;2023-06-24T13:36:49;20.33;74.23
77247;SHT35;66279;42.820;23.374;2023-06-24T13:39:15;19.93;79.35
77247;SHT35;66279;42.820;23.374;2023-06-24T13:41:44;19.65;82.89
77247;SHT35;66279;42.820;23.374;2023-06-24T16:22:15;21.63;84.08
77247;SHT35;66279;42.820;23.374;2023-06-24T16:24:55;21.76;83.94
77247;SHT35;66279;42.820;23.374;2023-06-24T16:27:21;21.77;81.55
77247;SHT35;66279;42.820;23.374;2023-06-24T16:29:49;21.83;82.40
77247;SHT35;66279;42.820;23.374;2023-06-24T16:32:14;21.95;82.04
77247;SHT35;66279;42.820;23.374;2023-06-24T16:34:40;21.94;81.44
77247;SHT35;66279;42.820;23.374;2023-06-24T16:37:06;21.83;81.88
77247;SHT35;66279;42.820;23.374;2023-06-24T16:39:31;21.68;81.32
77247;SHT35;66279;42.820;23.374;2023-06-24T16:41:57;21.67;81.00
77247;SHT35;66279;42.820;23.374;2023-06-24T16:44:25;21.63;79.87
77247;SHT35;66279;42.820;23.374;2023-06-24T16:46:52;21.53;80.76
77247;SHT35;66279;42.820;23.374;2023-06-24T16:49:23;21.43;82.55
77247;SHT35;66279;42.820;23.374;2023-06-24T16:51:52;21.27;82.42
77247;SHT35;66279;42.820;23.374;2023-06-24T16:54:17;21.19;82.29
77247;SHT35;66279;42.820;23.374;2023-06-24T16:56:43;21.03;81.99
77247;SHT35;66279;42.820;23.374;2023-06-24T16:59:08;20.95;83.14
77247;SHT35;66279;42.820;23.374;2023-06-24T17:01:34;20.95;83.10
77247;SHT35;66279;42.820;23.374;2023-06-24T17:04:00;21.00;83.22
77247;SHT35;66279;42.820;23.374;2023-06-24T17:06:28;21.03;82.67
77247;SHT35;66279;42.820;23.374;2023-06-24T17:08:54;21.08;82.44
77247;SHT35;66279;42.820;23.374;2023-06-24T17:11:24;21.13;81.67
77247;SHT35;66279;42.820;23.374;2023-06-24T17:13:50;21.20;81.65
77247;SHT35;66279;42.820;23.374;2023-06-24T17:16:16;21.22;80.91
77247;SHT35;66279;42.820;23.374;2023-06-24T17:18:42;21.23;80.14
77247;SHT35;66279;42.820;23.374;2023-06-24T17:21:07;21.22;82.38
77247;SHT35;66279;42.820;23.374;2023-06-24T17:23:33;21.22;82.48
77247;SHT35;66279;42.820;23.374;2023-06-24T17:25:58;21.22;81.46
77247;SHT35;66279;42.820;23.374;2023-06-24T17:28:24;21.20;82.05
77247;SHT35;66279;42.820;23.374;2023-06-24T17:30:49;21.13;81.67
77247;SHT35;66279;42.820;23.374;2023-06-24T17:33:15;21.02;81.49
77247;SHT35;66279;42.820;23.374;2023-06-24T17:35:40;21.02;81.94
77247;SHT35;66279;42.820;23.374;2023-06-24T17:38:06;20.95;81.37
77247;SHT35;66279;42.820;23.374;2023-06-24T17:40:31;20.98;82.05
77247;SHT35;66279;42.820;23.374;2023-06-24T17:42:57;20.95;82.05
77247;SHT35;66279;42.820;23.374;2023-06-24T17:45:23;20.98;83.79
77247;SHT35;66279;42.820;23.374;2023-06-24T17:47:48;20.99;83.51
77247;SHT35;66279;42.820;23.374;2023-06-24T17:50:17;21.02;82.24
77247;SHT35;66279;42.820;23.374;2023-06-24T17:52:42;21.10;82.23
77247;SHT35;66279;42.820;23.374;2023-06-24T17:55:08;21.09;83.02
77247;SHT35;66279;42.820;23.374;2023-06-24T17:57:34;21.00;83.54
77247;SHT35;66279;42.820;23.374;2023-06-24T17:59:59;21.06;83.08
77247;SHT35;66279;42.820;23.374;2023-06-24T18:02:25;21.09;82.89
77247;SHT35;66279;42.820;23.374;2023-06-24T18:04:50;21.02;84.75